createdAt,value
2018-12-14T00:01:31.919Z,24.75
2018-12-14T00:04:00.244Z,28.25
2018-12-14T00:06:28.601Z,25.00
2018-12-14T00:08:56.960Z,27.25
2018-12-14T00:11:25.330Z,26.37
2018-12-14T00:13:53.655Z,24.70
2018-12-14T00:16:23.216Z,25.70
2018-12-14T00:18:52.033Z,26.23
2018-12-14T00:21:20.393Z,25.52
2018-12-14T00:23:48.961Z,25.12
2018-12-14T00:26:18.529Z,23.92
2018-12-14T00:28:46.854Z,28.40
2018-12-14T00:31:15.518Z,24.98
2018-12-14T00:33:44.450Z,24.80
2018-12-14T00:36:14.441Z,24.00
2018-12-14T00:38:42.672Z,27.67
2018-12-14T00:41:10.920Z,24.87
2018-12-14T00:43:39.257Z,21.93
2018-12-14T00:46:09.529Z,23.00
2018-12-14T00:48:38.345Z,23.70
2018-12-14T00:51:07.316Z,23.10
2018-12-14T00:53:35.532Z,20.75
2018-12-14T00:56:05.205Z,24.67
2018-12-14T00:58:33.408Z,25.02
2018-12-14T01:01:01.637Z,24.20
2018-12-14T01:03:32.009Z,26.90
2018-12-14T01:06:00.245Z,28.32
2018-12-14T01:08:28.493Z,26.55
2018-12-14T01:10:58.149Z,22.50
2018-12-14T01:13:26.537Z,29.45
2018-12-14T01:15:54.748Z,23.67
2018-12-14T01:18:23.123Z,25.40
2018-12-14T01:20:51.333Z,23.02
2018-12-14T01:25:54.147Z,25.15
2018-12-14T01:28:22.598Z,22.98
2018-12-14T01:30:52.237Z,25.00
2018-12-14T01:33:20.483Z,26.52
2018-12-14T01:35:49.272Z,24.60
2018-12-14T01:38:18.332Z,25.15
2018-12-14T01:40:46.546Z,24.02
2018-12-14T01:43:15.097Z,26.85
2018-12-14T01:45:43.306Z,24.92
2018-12-14T01:48:11.576Z,25.72
2018-12-14T01:50:39.785Z,26.00
2018-12-14T01:53:08.046Z,24.95
2018-12-14T01:55:37.675Z,25.72
2018-12-14T01:58:06.035Z,23.30
2018-12-14T02:00:35.558Z,24.52
2018-12-14T02:03:04.535Z,28.73
2018-12-14T02:05:32.748Z,25.37
2018-12-14T02:08:01.168Z,23.20
2018-12-14T02:10:30.989Z,25.30
2018-12-14T02:12:59.560Z,23.95
2018-12-14T02:15:29.884Z,21.60
2018-12-14T02:17:58.364Z,24.87
2018-12-14T02:20:26.856Z,25.12
2018-12-14T02:22:55.122Z,25.05
2018-12-14T02:25:24.937Z,26.07
2018-12-14T02:27:55.197Z,23.55
2018-12-14T02:30:46.720Z,25.08
2018-12-14T02:33:32.184Z,22.25
2018-12-14T02:36:02.314Z,21.30
2018-12-14T02:38:31.443Z,23.27
2018-12-14T02:41:00.682Z,24.82
2018-12-14T02:43:29.394Z,23.67
2018-12-14T02:45:58.934Z,25.25
2018-12-14T02:48:27.267Z,23.62
2018-12-14T02:50:56.935Z,23.40
2018-12-14T02:53:25.143Z,24.92
2018-12-14T02:55:53.388Z,22.62
2018-12-14T02:58:21.717Z,22.55
2018-12-14T03:00:51.370Z,23.27
2018-12-14T03:03:19.824Z,21.45
2018-12-14T03:05:49.582Z,23.60
2018-12-14T03:08:17.838Z,21.95
2018-12-14T03:10:47.425Z,24.02
2018-12-14T03:13:15.703Z,24.63
2018-12-14T03:15:43.929Z,22.50
2018-12-14T03:18:12.745Z,24.32
2018-12-14T03:20:41.056Z,22.52
2018-12-14T03:23:09.654Z,21.52
2018-12-14T03:25:39.539Z,25.17
2018-12-14T03:28:07.949Z,24.85
2018-12-14T03:30:37.520Z,23.05
2018-12-14T03:33:05.851Z,24.45
2018-12-14T03:35:34.274Z,23.38
2018-12-14T03:38:03.197Z,22.10
2018-12-14T03:40:33.099Z,24.20
2018-12-14T03:43:01.309Z,21.02
2018-12-14T03:45:30.881Z,23.87
2018-12-14T03:47:59.181Z,22.73
2018-12-14T03:50:28.862Z,22.90
2018-12-14T03:52:57.071Z,22.70
2018-12-14T03:55:26.507Z,25.12
2018-12-14T03:57:55.241Z,23.60
2018-12-14T04:00:24.801Z,26.25
2018-12-14T04:02:53.367Z,23.83
2018-12-14T04:05:23.401Z,22.87
2018-12-14T04:07:51.645Z,22.40
2018-12-14T04:10:21.078Z,23.90
2018-12-14T04:12:50.635Z,23.70
2018-12-14T04:15:18.835Z,23.25
2018-12-14T04:17:48.398Z,26.33
2018-12-14T04:20:16.651Z,24.63
2018-12-14T04:22:46.216Z,23.30
2018-12-14T04:25:15.004Z,24.47
2018-12-14T04:27:44.567Z,20.97
2018-12-14T04:30:13.008Z,23.62
2018-12-14T04:32:42.574Z,24.52
2018-12-14T04:35:10.900Z,19.90
2018-12-14T04:37:40.457Z,21.17
2018-12-14T04:40:09.287Z,20.95
2018-12-14T04:42:39.738Z,22.30
2018-12-14T04:45:08.023Z,25.10
2018-12-14T04:47:38.672Z,24.05
2018-12-14T04:50:07.287Z,23.73
2018-12-14T04:52:36.992Z,20.30
2018-12-14T04:55:06.007Z,25.68
2018-12-14T04:57:36.609Z,23.20
2018-12-14T05:00:07.314Z,23.65
2018-12-14T05:02:35.960Z,20.70
2018-12-14T05:05:04.274Z,21.95
2018-12-14T05:07:33.801Z,23.02
2018-12-14T05:10:02.029Z,21.73
2018-12-14T05:12:32.157Z,21.52
2018-12-14T05:15:00.387Z,22.85
2018-12-14T05:17:28.609Z,21.65
2018-12-14T05:19:56.859Z,22.20
2018-12-14T05:22:25.081Z,20.60
2018-12-14T05:24:53.774Z,24.02
2018-12-14T05:27:22.099Z,22.48
2018-12-14T05:29:50.756Z,22.27
2018-12-14T05:32:20.202Z,22.90
2018-12-14T05:34:48.867Z,25.82
2018-12-14T05:37:17.169Z,24.70
2018-12-14T05:39:45.421Z,23.70
2018-12-14T05:42:15.064Z,23.18
2018-12-14T05:44:43.298Z,25.85
2018-12-14T05:47:11.504Z,20.65
2018-12-14T05:49:39.750Z,23.12
2018-12-14T05:52:07.967Z,23.95
2018-12-14T05:54:36.214Z,24.35
2018-12-14T05:57:04.426Z,25.85
2018-12-14T05:59:32.664Z,25.40
2018-12-14T06:02:02.100Z,21.80
2018-12-14T06:04:30.337Z,24.32
2018-12-14T06:06:58.543Z,24.45
2018-12-14T06:09:26.786Z,22.80
2018-12-14T06:11:56.354Z,23.80
2018-12-14T06:14:24.698Z,22.80
2018-12-14T06:16:54.336Z,23.10
2018-12-14T06:19:22.537Z,25.35
2018-12-14T06:21:50.773Z,22.13
2018-12-14T06:24:18.974Z,24.95
2018-12-14T06:26:47.222Z,21.90
2018-12-14T06:29:15.417Z,22.45
2018-12-14T06:31:43.668Z,23.90
2018-12-14T06:34:11.863Z,22.90
2018-12-14T06:36:41.614Z,21.90
2018-12-14T06:39:09.821Z,22.85
2018-12-14T06:41:39.885Z,24.82
2018-12-14T06:44:10.105Z,24.23
2018-12-14T06:46:39.762Z,26.75
2018-12-14T06:49:08.194Z,25.02
2018-12-14T06:51:37.752Z,24.60
2018-12-14T06:54:05.953Z,24.95
2018-12-14T06:56:34.202Z,24.80
2018-12-14T06:59:02.404Z,25.75
2018-12-14T07:01:30.638Z,25.35
2018-12-14T07:03:58.843Z,20.05
2018-12-14T07:06:28.435Z,25.23
2018-12-14T07:08:56.738Z,24.10
2018-12-14T07:11:26.401Z,22.73
2018-12-14T07:13:54.661Z,22.65
2018-12-14T07:16:24.228Z,28.35
2018-12-14T07:18:52.558Z,23.47
2018-12-14T07:21:22.114Z,25.05
2018-12-14T07:23:50.313Z,25.05
2018-12-14T07:26:18.551Z,23.10
2018-12-14T07:28:46.820Z,24.12
2018-12-14T07:31:15.220Z,23.98
2018-12-14T07:33:43.507Z,22.50
2018-12-14T07:36:13.050Z,24.23
2018-12-14T07:38:41.297Z,22.65
2018-12-14T07:41:10.926Z,24.75
2018-12-14T07:43:39.169Z,23.87
2018-12-14T07:46:08.694Z,23.55
2018-12-14T07:48:37.048Z,24.77
2018-12-14T07:51:05.264Z,26.75
2018-12-14T07:53:33.494Z,25.50
2018-12-14T07:56:03.049Z,25.05
2018-12-14T07:58:31.405Z,25.77
2018-12-14T08:00:59.621Z,28.23
2018-12-14T08:03:27.870Z,29.20
2018-12-14T08:05:56.155Z,26.40
2018-12-14T08:08:24.583Z,34.55
2018-12-14T08:10:52.803Z,26.17
2018-12-14T08:13:21.054Z,26.90
2018-12-14T08:15:49.265Z,25.35
2018-12-14T08:18:17.810Z,26.10
2018-12-14T08:20:46.286Z,25.90
2018-12-14T08:23:15.180Z,28.50
2018-12-14T08:25:43.397Z,25.50
2018-12-14T08:28:12.060Z,25.70
2018-12-14T08:30:40.249Z,26.15
2018-12-14T08:33:08.488Z,25.08
2018-12-14T08:35:38.050Z,25.05
2018-12-14T08:38:06.286Z,27.55
2018-12-14T08:40:34.486Z,25.25
2018-12-14T08:43:02.733Z,24.47
2018-12-14T08:45:32.274Z,25.40
2018-12-14T08:48:00.710Z,25.92
2018-12-14T08:50:28.956Z,25.27
2018-12-14T08:52:57.158Z,27.20
2018-12-14T08:55:25.394Z,24.00
2018-12-14T08:57:53.593Z,25.05
2018-12-14T09:00:21.848Z,25.45
2018-12-14T09:02:51.378Z,24.57
2018-12-14T09:05:19.739Z,23.77
2018-12-14T09:07:49.362Z,23.62
2018-12-14T09:10:17.722Z,24.87
2018-12-14T09:12:47.244Z,35.65
2018-12-14T09:15:15.474Z,23.50
2018-12-14T09:17:45.297Z,29.42
2018-12-14T09:20:13.637Z,22.22
2018-12-14T09:22:43.262Z,28.23
2018-12-14T09:25:11.485Z,23.92
2018-12-14T09:27:41.088Z,23.60
2018-12-14T09:30:09.505Z,23.75
2018-12-14T09:32:39.339Z,23.27
2018-12-14T09:35:07.671Z,25.00
2018-12-14T09:37:37.206Z,29.87
2018-12-14T09:40:05.786Z,24.32
2018-12-14T09:42:35.417Z,24.98
2018-12-14T09:45:03.649Z,23.83
2018-12-14T09:47:33.558Z,26.17
2018-12-14T09:50:01.804Z,22.65
2018-12-14T09:52:32.045Z,23.98
2018-12-14T09:55:00.302Z,26.60
2018-12-14T09:57:28.559Z,24.57
2018-12-14T09:59:56.774Z,21.82
2018-12-14T10:02:26.345Z,24.43
2018-12-14T10:04:54.574Z,24.37
2018-12-14T10:07:25.123Z,26.30
2018-12-14T10:09:53.333Z,23.80
2018-12-14T10:12:22.997Z,24.80
2018-12-14T10:14:51.318Z,26.52
2018-12-14T10:17:19.599Z,24.25
2018-12-14T10:19:47.830Z,23.60
2018-12-14T10:22:17.484Z,24.67
2018-12-14T10:24:45.717Z,25.55
2018-12-14T10:27:13.958Z,23.83
2018-12-14T10:29:42.281Z,27.87
2018-12-14T10:32:10.517Z,23.12
2018-12-14T10:34:39.550Z,26.00
2018-12-14T10:37:08.031Z,28.47
2018-12-14T10:39:36.364Z,25.10
2018-12-14T10:42:06.134Z,22.45
2018-12-14T10:44:34.366Z,25.75
2018-12-14T10:47:02.604Z,27.00
2018-12-14T10:49:30.938Z,23.90
2018-12-14T10:52:00.398Z,23.52
2018-12-14T10:54:28.798Z,28.67
2018-12-14T10:56:57.058Z,24.35
2018-12-14T10:59:25.719Z,26.97
2018-12-14T11:01:56.553Z,24.47
2018-12-14T11:04:25.704Z,26.27
2018-12-14T11:06:54.088Z,24.27
2018-12-14T11:09:22.402Z,24.80
2018-12-14T11:11:50.606Z,25.00
2018-12-14T11:14:18.850Z,26.95
2018-12-14T11:16:47.178Z,20.92
2018-12-14T11:19:15.531Z,27.02
2018-12-14T11:21:43.744Z,27.90
2018-12-14T11:24:11.976Z,21.77
2018-12-14T11:26:42.200Z,24.75
2018-12-14T11:29:10.430Z,24.50
2018-12-14T11:31:40.058Z,26.23
2018-12-14T11:34:08.323Z,26.90
2018-12-14T11:36:36.651Z,21.68
2018-12-14T11:39:05.390Z,28.38
2018-12-14T11:41:35.623Z,24.32
2018-12-14T11:44:03.995Z,22.52
2018-12-14T11:46:33.611Z,20.37
2018-12-14T11:49:02.254Z,22.80
2018-12-14T11:51:30.482Z,25.25
2018-12-14T11:53:58.719Z,22.62
2018-12-14T11:56:28.447Z,20.32
2018-12-14T11:58:56.689Z,22.65
2018-12-14T12:01:24.889Z,23.65
2018-12-14T12:03:53.138Z,25.65
2018-12-14T12:06:21.354Z,21.80
2018-12-14T12:08:49.602Z,24.47
2018-12-14T12:11:17.937Z,19.67
2018-12-14T12:13:46.180Z,16.07
2018-12-14T12:16:15.832Z,19.95
2018-12-14T12:18:44.198Z,20.80
2018-12-14T12:21:12.523Z,19.67
2018-12-14T12:23:40.772Z,19.17
2018-12-14T12:26:10.406Z,20.52
2018-12-14T12:28:38.639Z,20.77
2018-12-14T12:31:06.834Z,18.87
2018-12-14T12:33:35.185Z,19.10
2018-12-14T12:36:04.005Z,16.97
2018-12-14T12:38:37.966Z,20.48
2018-12-14T12:41:02.602Z,21.27
2018-12-14T12:43:30.867Z,21.12
2018-12-14T12:46:00.535Z,20.00
2018-12-14T12:48:28.760Z,20.88
2018-12-14T12:51:02.849Z,17.00
2018-12-14T12:53:27.374Z,19.98
2018-12-14T12:55:55.676Z,20.15
2018-12-14T12:58:23.996Z,18.23
2018-12-14T13:00:53.572Z,18.50
2018-12-14T13:03:21.771Z,17.20
2018-12-14T13:05:51.426Z,18.42
2018-12-14T13:08:20.582Z,16.73
2018-12-14T13:10:50.141Z,19.12
2018-12-14T13:13:18.347Z,18.42
2018-12-14T13:15:47.803Z,18.25
2018-12-14T13:18:16.008Z,17.30
2018-12-14T13:20:45.573Z,19.82
2018-12-14T13:23:13.785Z,19.17
2018-12-14T13:25:43.340Z,17.82
2018-12-14T13:28:11.841Z,18.77
2018-12-14T13:30:40.470Z,16.02
2018-12-14T13:33:08.778Z,19.12
2018-12-14T13:35:37.126Z,23.45
2018-12-14T13:38:05.358Z,19.65
2018-12-14T13:40:35.037Z,21.17
2018-12-14T13:43:03.255Z,19.42
2018-12-14T13:45:33.032Z,21.35
2018-12-14T13:48:01.225Z,20.55
2018-12-14T13:50:31.089Z,21.55
2018-12-14T13:52:59.331Z,22.10
2018-12-14T13:55:27.557Z,19.02
2018-12-14T13:57:55.762Z,22.52
2018-12-14T14:00:23.997Z,20.80
2018-12-14T14:02:52.207Z,18.73
2018-12-14T14:05:21.838Z,19.30
2018-12-14T14:07:51.390Z,34.33
2018-12-14T14:10:19.591Z,18.52
2018-12-14T14:12:49.041Z,21.00
2018-12-14T14:15:20.901Z,20.52
2018-12-14T14:17:48.822Z,19.70
2018-12-14T14:20:17.146Z,21.62
2018-12-14T14:22:46.708Z,19.05
2018-12-14T14:25:17.629Z,19.32
2018-12-14T14:27:46.494Z,20.65
2018-12-14T14:30:14.692Z,16.97
2018-12-14T14:32:44.241Z,18.40
2018-12-14T14:35:12.451Z,21.57
2018-12-14T14:37:42.103Z,20.68
2018-12-14T14:40:10.435Z,20.30
2018-12-14T14:42:40.090Z,22.37
2018-12-14T14:45:08.297Z,19.02
2018-12-14T14:47:38.456Z,19.23
2018-12-14T14:50:08.043Z,20.92
2018-12-14T14:52:37.606Z,18.95
2018-12-14T14:55:05.806Z,20.10
2018-12-14T14:57:35.863Z,19.48
2018-12-14T15:00:05.258Z,20.12
2018-12-14T15:02:35.615Z,18.50
2018-12-14T15:05:05.121Z,18.20
2018-12-14T15:07:34.974Z,18.75
2018-12-14T15:10:04.192Z,19.35
2018-12-14T15:12:34.017Z,21.15
2018-12-14T15:15:06.585Z,19.52
2018-12-14T15:17:34.546Z,19.70
2018-12-14T15:20:02.818Z,18.40
2018-12-14T15:22:33.049Z,22.10
2018-12-14T15:25:01.313Z,16.70
2018-12-14T15:27:31.874Z,19.07
2018-12-14T15:30:00.145Z,18.40
2018-12-14T15:32:31.894Z,19.95
2018-12-14T15:35:00.261Z,20.35
2018-12-14T15:37:28.645Z,17.40
2018-12-14T15:39:56.888Z,18.90
2018-12-14T15:42:25.195Z,17.85
2018-12-14T15:44:53.443Z,19.42
2018-12-14T15:47:21.649Z,17.95
2018-12-14T15:49:50.002Z,16.80
2018-12-14T15:52:19.726Z,18.50
2018-12-14T15:54:47.982Z,19.35
2018-12-14T15:57:16.301Z,21.17
2018-12-14T15:59:44.756Z,20.35
2018-12-14T16:02:14.291Z,19.92
2018-12-14T16:04:42.658Z,20.48
2018-12-14T16:07:10.894Z,18.90
2018-12-14T16:09:39.548Z,17.85
2018-12-14T16:12:09.770Z,15.90
2018-12-14T16:14:38.123Z,16.87
2018-12-14T16:17:06.375Z,17.12
2018-12-14T16:19:34.749Z,19.27
2018-12-14T16:22:03.081Z,19.75
2018-12-14T16:24:31.328Z,19.15
2018-12-14T16:27:00.768Z,19.20
2018-12-14T16:29:29.431Z,19.65
2018-12-14T16:31:57.770Z,18.48
2018-12-14T16:34:26.013Z,19.73
2018-12-14T16:36:54.230Z,41.58
2018-12-14T16:39:22.755Z,17.32
2018-12-14T16:41:52.373Z,20.35
2018-12-14T16:44:21.786Z,16.62
2018-12-14T16:46:51.415Z,20.77
2018-12-14T16:49:19.619Z,19.87
2018-12-14T16:51:49.191Z,17.65
2018-12-14T16:54:17.394Z,20.20
2018-12-14T16:56:45.637Z,18.77
2018-12-14T16:59:13.965Z,19.87
2018-12-14T17:01:42.722Z,17.07
2018-12-14T17:04:10.930Z,19.37
2018-12-14T17:06:41.185Z,21.77
2018-12-14T17:09:09.507Z,20.48
2018-12-14T17:11:39.774Z,19.12
2018-12-14T17:14:08.098Z,15.35
2018-12-14T17:16:38.361Z,28.95
2018-12-14T17:19:06.690Z,18.35
2018-12-14T17:21:36.483Z,23.47
2018-12-14T17:24:04.808Z,20.70
2018-12-14T17:26:34.665Z,17.15
2018-12-14T17:29:03.000Z,18.12
2018-12-14T17:31:31.676Z,16.97
2018-12-14T17:34:00.598Z,19.40
2018-12-14T17:36:29.070Z,18.98
2018-12-14T17:38:57.398Z,16.93
2018-12-14T17:41:27.171Z,16.85
2018-12-14T17:43:55.498Z,17.48
2018-12-14T17:46:23.854Z,15.53
2018-12-14T17:48:52.194Z,17.05
2018-12-14T17:51:20.659Z,18.02
2018-12-14T17:53:48.981Z,17.92
2018-12-14T17:56:18.718Z,16.32
2018-12-14T17:58:47.175Z,15.68
2018-12-14T18:01:16.831Z,17.37
2018-12-14T18:03:45.191Z,17.23
2018-12-14T18:06:15.413Z,16.30
2018-12-14T18:08:43.649Z,14.23
2018-12-14T18:11:13.282Z,16.25
2018-12-14T18:13:41.534Z,13.48
2018-12-14T18:16:11.364Z,13.90
2018-12-14T18:18:39.741Z,16.05
2018-12-14T18:21:08.080Z,15.23
2018-12-14T18:23:36.569Z,16.77
2018-12-14T18:26:04.877Z,16.12
2018-12-14T18:28:33.134Z,17.80
2018-12-14T18:31:01.362Z,15.60
2018-12-14T18:33:31.432Z,13.70
2018-12-14T18:36:01.069Z,16.32
2018-12-14T18:38:30.922Z,14.13
2018-12-14T18:41:00.589Z,16.20
2018-12-14T18:43:29.451Z,17.50
2018-12-14T18:45:57.685Z,15.25
2018-12-14T18:48:26.038Z,15.90
2018-12-14T18:50:54.758Z,14.07
2018-12-14T18:53:23.123Z,16.70
2018-12-14T18:55:51.581Z,13.43
2018-12-14T18:58:19.925Z,14.50
2018-12-14T19:00:48.249Z,14.47
2018-12-14T19:03:16.605Z,13.43
2018-12-14T19:05:46.894Z,14.73
2018-12-14T19:08:15.354Z,12.63
2018-12-14T19:10:45.606Z,15.38
2018-12-14T19:13:13.957Z,11.65
2018-12-14T19:15:43.793Z,12.43
2018-12-14T19:18:12.038Z,14.53
2018-12-14T19:20:40.608Z,15.55
2018-12-14T19:23:08.834Z,15.85
2018-12-14T19:25:37.195Z,18.65
2018-12-14T19:28:05.538Z,16.57
2018-12-14T19:30:35.206Z,19.23
2018-12-14T19:33:03.414Z,15.38
2018-12-14T19:35:32.976Z,13.15
2018-12-14T19:38:01.299Z,13.28
2018-12-14T19:40:30.697Z,13.53
2018-12-14T19:42:59.075Z,11.25
2018-12-14T19:45:28.838Z,14.80
2018-12-14T19:47:57.103Z,14.13
2018-12-14T19:50:26.866Z,12.78
2018-12-14T19:52:55.083Z,13.60
2018-12-14T19:55:23.334Z,14.05
2018-12-14T19:57:51.530Z,11.97
2018-12-14T20:00:20.982Z,15.05
2018-12-14T20:02:51.197Z,16.12
2018-12-14T20:05:19.567Z,15.72
2018-12-14T20:07:49.303Z,16.75
2018-12-14T20:10:18.245Z,18.50
2018-12-14T20:12:47.791Z,16.70
2018-12-14T20:15:16.071Z,16.52
2018-12-14T20:17:45.602Z,14.00
2018-12-14T20:20:14.516Z,14.07
2018-12-14T20:22:44.042Z,14.05
2018-12-14T20:25:12.718Z,11.97
2018-12-14T20:27:42.372Z,15.95
2018-12-14T20:30:10.585Z,13.32
2018-12-14T20:32:40.543Z,13.35
2018-12-14T20:35:09.086Z,16.60
2018-12-14T20:37:38.614Z,14.63
2018-12-14T20:40:06.860Z,15.72
2018-12-14T20:42:36.418Z,15.05
2018-12-14T20:45:06.026Z,17.90
2018-12-14T20:47:35.590Z,15.70
2018-12-14T20:50:04.474Z,16.12
2018-12-14T20:52:34.020Z,20.02
2018-12-14T20:55:02.566Z,18.48
2018-12-14T20:57:32.653Z,18.87
2018-12-14T21:00:00.857Z,17.70
2018-12-14T21:02:31.113Z,17.50
2018-12-14T21:04:59.377Z,18.60
2018-12-14T21:07:27.609Z,16.97
2018-12-14T21:09:55.944Z,16.40
2018-12-14T21:12:25.709Z,18.45
2018-12-14T21:14:55.938Z,16.30
2018-12-14T21:17:25.818Z,17.85
2018-12-14T21:19:54.061Z,16.97
2018-12-14T21:22:23.620Z,16.20
2018-12-14T21:24:51.827Z,19.60
2018-12-14T21:27:20.093Z,20.00
2018-12-14T21:29:48.308Z,19.42
2018-12-14T21:32:18.173Z,18.60
2018-12-14T21:34:46.519Z,20.43
2018-12-14T21:37:15.125Z,19.90
2018-12-14T21:39:43.456Z,18.77
2018-12-14T21:42:13.113Z,20.23
2018-12-14T21:44:42.551Z,19.92
2018-12-14T21:47:12.113Z,19.98
2018-12-14T21:49:40.669Z,15.65
2018-12-14T21:52:10.378Z,22.65
2018-12-14T21:54:38.770Z,21.20
2018-12-14T21:57:08.341Z,23.22
2018-12-14T21:59:36.666Z,30.70
2018-12-14T22:02:04.909Z,20.90
2018-12-14T22:04:34.093Z,48.78
2018-12-14T22:07:02.450Z,38.33
2018-12-14T22:09:30.984Z,24.90
2018-12-14T22:12:00.850Z,18.92
2018-12-14T22:14:29.122Z,20.92
2018-12-14T22:16:57.349Z,19.90
2018-12-14T22:19:25.618Z,19.17
2018-12-14T22:21:55.262Z,17.02
2018-12-14T22:24:23.515Z,20.48
2018-12-14T22:26:51.841Z,17.67
2018-12-14T22:29:20.067Z,17.40
2018-12-14T22:31:49.596Z,18.87
2018-12-14T22:34:17.846Z,19.20
2018-12-14T22:36:46.051Z,18.15
2018-12-14T22:39:14.791Z,19.02
2018-12-14T22:41:44.242Z,18.65
2018-12-14T22:44:12.473Z,18.15
2018-12-14T22:46:45.635Z,15.72
2018-12-14T22:49:12.428Z,18.60
2018-12-14T22:51:40.657Z,17.17
2018-12-14T22:54:08.910Z,16.55
2018-12-14T22:56:38.471Z,19.32
2018-12-14T22:59:06.734Z,17.57
2018-12-14T23:01:36.369Z,18.92
2018-12-14T23:04:04.788Z,22.77
2018-12-14T23:06:33.182Z,21.15
2018-12-14T23:09:01.448Z,15.55
2018-12-14T23:11:31.665Z,15.95
2018-12-14T23:14:00.048Z,15.55
2018-12-14T23:16:30.502Z,17.12
2018-12-14T23:18:58.738Z,27.52
2018-12-14T23:21:26.971Z,20.97
2018-12-14T23:23:55.191Z,18.80
2018-12-14T23:26:24.829Z,16.40
2018-12-14T23:28:53.181Z,15.23
2018-12-14T23:31:22.740Z,18.25
2018-12-14T23:33:51.073Z,15.63
2018-12-14T23:36:20.831Z,17.05
2018-12-14T23:38:49.053Z,17.95
2018-12-14T23:41:17.289Z,16.87
2018-12-14T23:43:45.510Z,17.85
2018-12-14T23:46:13.877Z,18.95
2018-12-14T23:48:42.066Z,16.60
2018-12-14T23:51:11.726Z,17.45
2018-12-14T23:53:40.149Z,17.80
2018-12-14T23:56:10.409Z,18.20
2018-12-14T23:58:38.741Z,17.55
